sensor_id;sensor_type;location;lat;lon;timestamp;pressure;altitude;pressure_sealevel;temperature;humidity
73551;BME280;61816;53.582;10.096;2023-05-01T00:01:31;54292.75;;;-144.73;82.21
73551;BME280;61816;53.582;10.096;2023-05-01T00:03:57;54362.53;;;-144.73;82.25
73551;BME280;61816;53.582;10.096;2023-05-01T00:06:22;54329.72;;;-144.73;82.98
73551;BME280;61816;53.582;10.096;2023-05-01T00:08:47;54342.03;;;-144.73;83.04
73551;BME280;61816;53.582;10.096;2023-05-01T00:11:13;54333.81;;;-144.73;85.05
73551;BME280;61816;53.582;10.096;2023-05-01T00:13:38;54313.28;;;-144.73;86.06
73551;BME280;61816;53.582;10.096;2023-05-01T00:16:10;54309.19;;;-144.73;85.45
73551;BME280;61816;53.582;10.096;2023-05-01T00:18:37;54391.28;;;-144.73;88.73
73551;BME280;61816;53.582;10.096;2023-05-01T00:21:02;54305.06;;;-144.73;86.96
73551;BME280;61816;53.582;10.096;2023-05-01T00:23:28;54309.19;;;-144.73;86.53
73551;BME280;61816;53.582;10.096;2023-05-01T00:25:53;54251.72;;;-144.73;86.59
73551;BME280;61816;53.582;10.096;2023-05-01T00:28:18;54337.91;;;-144.73;86.33
73551;BME280;61816;53.582;10.096;2023-05-01T00:30:44;54325.59;;;-144.73;85.80
73551;BME280;61816;53.582;10.096;2023-05-01T00:33:10;54329.72;;;-144.73;88.00
73551;BME280;61816;53.582;10.096;2023-05-01T00:35:35;54337.91;;;-144.73;87.72
73551;BME280;61816;53.582;10.096;2023-05-01T00:38:01;54391.28;;;-144.73;86.93
73551;BME280;61816;53.582;10.096;2023-05-01T00:40:26;54296.88;;;-144.73;86.20
73551;BME280;61816;53.582;10.096;2023-05-01T00:42:52;54296.88;;;-144.73;86.48
73551;BME280;61816;53.582;10.096;2023-05-01T00:45:18;54321.50;;;-144.73;89.09
73551;BME280;61816;53.582;10.096;2023-05-01T00:47:44;54313.28;;;-144.73;89.00
73551;BME280;61816;53.582;10.096;2023-05-01T00:50:11;54346.13;;;-144.73;88.84
73551;BME280;61816;53.582;10.096;2023-05-01T00:52:37;54333.81;;;-144.73;89.74
73551;BME280;61816;53.582;10.096;2023-05-01T00:55:04;54350.22;;;-144.73;89.84
73551;BME280;61816;53.582;10.096;2023-05-01T00:57:30;54344.06;;;-144.73;91.85
73551;BME280;61816;53.582;10.096;2023-05-01T00:59:55;54305.06;;;-144.73;92.56
73551;BME280;61816;53.582;10.096;2023-05-01T01:02:21;54366.66;;;-144.73;94.96
73551;BME280;61816;53.582;10.096;2023-05-01T01:04:47;54288.66;;;-144.73;95.63
73551;BME280;61816;53.582;10.096;2023-05-01T01:07:34;54333.81;;;-144.73;95.97
73551;BME280;61816;53.582;10.096;2023-05-01T01:10:17;54305.06;;;-144.73;95.27
73551;BME280;61816;53.582;10.096;2023-05-01T01:13:09;54321.50;;;-144.73;95.59
73551;BME280;61816;53.582;10.096;2023-05-01T01:15:47;54313.28;;;-144.73;94.43
73551;BME280;61816;53.582;10.096;2023-05-01T01:19:14;54362.53;;;-144.73;94.53
73551;BME280;61816;53.582;10.096;2023-05-01T01:21:53;54300.97;;;-144.73;93.92
73551;BME280;61816;53.582;10.096;2023-05-01T01:24:47;54305.06;;;-144.73;96.20
73551;BME280;61816;53.582;10.096;2023-05-01T01:27:38;54321.50;;;-144.73;95.59
73551;BME280;61816;53.582;10.096;2023-05-01T01:36:09;54346.13;;;-144.73;96.04
73551;BME280;61816;53.582;10.096;2023-05-01T01:38:45;54337.91;;;-144.73;98.68
73551;BME280;61816;53.582;10.096;2023-05-01T01:41:19;54354.34;;;-144.73;98.31
73551;BME280;61816;53.582;10.096;2023-05-01T01:44:01;54333.81;;;-144.73;97.79
73551;BME280;61816;53.582;10.096;2023-05-01T01:46:30;54333.81;;;-144.73;97.90
73551;BME280;61816;53.582;10.096;2023-05-01T01:48:59;54358.44;;;-144.73;98.30
73551;BME280;61816;53.582;10.096;2023-05-01T01:51:24;54329.72;;;-144.73;97.72
73551;BME280;61816;53.582;10.096;2023-05-01T01:53:52;54356.38;;;-144.73;97.52
73551;BME280;61816;53.582;10.096;2023-05-01T01:56:19;54317.38;;;-144.73;97.62
73551;BME280;61816;53.582;10.096;2023-05-01T01:58:46;54366.66;;;-144.73;97.03
73551;BME280;61816;53.582;10.096;2023-05-01T02:01:14;54309.19;;;-144.73;98.20
73551;BME280;61816;53.582;10.096;2023-05-01T02:03:42;54325.59;;;-144.73;97.74
73551;BME280;61816;53.582;10.096;2023-05-01T02:06:10;54346.13;;;-144.73;97.38
73551;BME280;61816;53.582;10.096;2023-05-01T02:08:36;54309.19;;;-144.73;98.47
73551;BME280;61816;53.582;10.096;2023-05-01T02:11:03;54321.50;;;-144.73;98.12
73551;BME280;61816;53.582;10.096;2023-05-01T02:13:30;54337.91;;;-144.73;97.00
73551;BME280;61816;53.582;10.096;2023-05-01T02:15:57;54333.81;;;-144.73;97.05
73551;BME280;61816;53.582;10.096;2023-05-01T02:18:25;54309.19;;;-144.73;96.80
73551;BME280;61816;53.582;10.096;2023-05-01T02:20:52;54317.38;;;-144.73;99.94
73551;BME280;61816;53.582;10.096;2023-05-01T02:23:17;54342.03;;;-144.73;100.00
73551;BME280;61816;53.582;10.096;2023-05-01T02:25:43;54342.03;;;-144.73;100.00
73551;BME280;61816;53.582;10.096;2023-05-01T02:28:12;54313.28;;;-144.73;100.00
73551;BME280;61816;53.582;10.096;2023-05-01T02:30:40;54350.22;;;-144.73;100.00
73551;BME280;61816;53.582;10.096;2023-05-01T02:33:08;54339.97;;;-144.73;99.53
73551;BME280;61816;53.582;10.096;2023-05-01T02:35:41;54337.91;;;-144.73;98.25
73551;BME280;61816;53.582;10.096;2023-05-01T02:38:09;54305.06;;;-144.73;97.60
73551;BME280;61816;53.582;10.096;2023-05-01T02:40:35;54346.13;;;-144.73;100.00
73551;BME280;61816;53.582;10.096;2023-05-01T02:43:03;54335.88;;;-144.73;100.00
73551;BME280;61816;53.582;10.096;2023-05-01T02:45:34;54342.03;;;-144.73;100.00
73551;BME280;61816;53.582;10.096;2023-05-01T02:48:02;54309.19;;;-144.73;100.00
73551;BME280;61816;53.582;10.096;2023-05-01T02:50:30;54337.91;;;-144.73;100.00
73551;BME280;61816;53.582;10.096;2023-05-01T02:52:57;54354.34;;;-144.73;100.00
73551;BME280;61816;53.582;10.096;2023-05-01T02:55:26;54342.03;;;-144.73;100.00
73551;BME280;61816;53.582;10.096;2023-05-01T02:57:51;54335.88;;;-144.73;100.00
73551;BME280;61816;53.582;10.096;2023-05-01T03:00:17;54292.75;;;-144.73;100.00
73551;BME280;61816;53.582;10.096;2023-05-01T03:02:43;54337.91;;;-144.73;100.00
73551;BME280;61816;53.582;10.096;2023-05-01T03:05:09;54333.81;;;-144.73;100.00
73551;BME280;61816;53.582;10.096;2023-05-01T03:07:34;54329.72;;;-144.73;100.00
73551;BME280;61816;53.582;10.096;2023-05-01T03:10:01;54329.72;;;-144.73;100.00
73551;BME280;61816;53.582;10.096;2023-05-01T03:12:28;54296.88;;;-144.73;100.00
73551;BME280;61816;53.582;10.096;2023-05-01T03:14:54;54309.19;;;-144.73;100.00
73551;BME280;61816;53.582;10.096;2023-05-01T03:17:19;54337.91;;;-144.73;100.00
73551;BME280;61816;53.582;10.096;2023-05-01T03:19:45;54325.59;;;-144.73;100.00
73551;BME280;61816;53.582;10.096;2023-05-01T03:22:10;54333.81;;;-144.73;100.00
73551;BME280;61816;53.582;10.096;2023-05-01T03:24:36;54350.22;;;-144.73;100.00
73551;BME280;61816;53.582;10.096;2023-05-01T03:27:01;54337.91;;;-144.73;100.00
73551;BME280;61816;53.582;10.096;2023-05-01T03:29:26;54362.53;;;-144.73;100.00
73551;BME280;61816;53.582;10.096;2023-05-01T03:31:52;54309.19;;;-144.73;100.00
73551;BME280;61816;53.582;10.096;2023-05-01T03:34:17;54309.19;;;-144.73;100.00
73551;BME280;61816;53.582;10.096;2023-05-01T03:36:42;54329.72;;;-144.73;100.00
73551;BME280;61816;53.582;10.096;2023-05-01T03:39:08;54333.81;;;-144.73;100.00
73551;BME280;61816;53.582;10.096;2023-05-01T03:41:33;54350.22;;;-144.73;100.00
73551;BME280;61816;53.582;10.096;2023-05-01T03:43:58;54325.59;;;-144.73;100.00
73551;BME280;61816;53.582;10.096;2023-05-01T03:46:24;54350.22;;;-144.73;100.00
73551;BME280;61816;53.582;10.096;2023-05-01T03:48:49;54358.44;;;-144.73;100.00
73551;BME280;61816;53.582;10.096;2023-05-01T03:51:14;54342.03;;;-144.73;100.00
73551;BME280;61816;53.582;10.096;2023-05-01T03:53:42;54370.75;;;-144.73;100.00
73551;BME280;61816;53.582;10.096;2023-05-01T03:56:07;54313.28;;;-144.73;100.00
73551;BME280;61816;53.582;10.096;2023-05-01T03:58:33;54346.13;;;-144.73;100.00
73551;BME280;61816;53.582;10.096;2023-05-01T04:00:58;54325.59;;;-144.73;100.00
73551;BME280;61816;53.582;10.096;2023-05-01T04:03:25;54329.72;;;-144.73;100.00
73551;BME280;61816;53.582;10.096;2023-05-01T04:05:50;54362.53;;;-144.73;100.00
73551;BME280;61816;53.582;10.096;2023-05-01T04:08:17;54337.91;;;-144.73;100.00
73551;BME280;61816;53.582;10.096;2023-05-01T04:10:43;54337.91;;;-144.73;100.00
73551;BME280;61816;53.582;10.096;2023-05-01T04:13:08;54325.59;;;-144.73;100.00
73551;BME280;61816;53.582;10.096;2023-05-01T04:15:35;54370.75;;;-144.73;100.00
73551;BME280;61816;53.582;10.096;2023-05-01T04:18:00;54305.06;;;-144.73;100.00
73551;BME280;61816;53.582;10.096;2023-05-01T04:20:25;54358.44;;;-144.73;100.00
73551;BME280;61816;53.582;10.096;2023-05-01T04:22:51;54350.22;;;-144.73;100.00
73551;BME280;61816;53.582;10.096;2023-05-01T04:25:16;54352.28;;;-144.73;100.00
73551;BME280;61816;53.582;10.096;2023-05-01T04:27:41;54337.91;;;-144.73;100.00
73551;BME280;61816;53.582;10.096;2023-05-01T04:30:07;54284.56;;;-144.73;100.00
73551;BME280;61816;53.582;10.096;2023-05-01T04:32:33;54366.66;;;-144.73;100.00
73551;BME280;61816;53.582;10.096;2023-05-01T04:34:59;54342.03;;;-144.73;100.00
73551;BME280;61816;53.582;10.096;2023-05-01T04:37:25;54288.66;;;-144.73;100.00
73551;BME280;61816;53.582;10.096;2023-05-01T04:39:50;54354.34;;;-144.73;100.00
73551;BME280;61816;53.582;10.096;2023-05-01T04:42:15;54307.13;;;-144.73;100.00
73551;BME280;61816;53.582;10.096;2023-05-01T04:44:41;54321.50;;;-144.73;100.00
73551;BME280;61816;53.582;10.096;2023-05-01T04:47:06;54288.66;;;-144.73;100.00
73551;BME280;61816;53.582;10.096;2023-05-01T04:49:32;54329.72;;;-144.73;100.00
73551;BME280;61816;53.582;10.096;2023-05-01T04:51:58;54317.38;;;-144.73;100.00
73551;BME280;61816;53.582;10.096;2023-05-01T04:54:23;54313.28;;;-144.73;100.00
73551;BME280;61816;53.582;10.096;2023-05-01T04:56:49;54333.81;;;-144.73;100.00
73551;BME280;61816;53.582;10.096;2023-05-01T04:59:15;54313.28;;;-144.73;100.00
73551;BME280;61816;53.582;10.096;2023-05-01T05:01:41;54319.44;;;-144.73;100.00
73551;BME280;61816;53.582;10.096;2023-05-01T05:04:06;54337.91;;;-144.73;100.00
73551;BME280;61816;53.582;10.096;2023-05-01T05:06:32;54325.59;;;-144.73;100.00
73551;BME280;61816;53.582;10.096;2023-05-01T05:08:57;54346.13;;;-144.73;100.00
73551;BME280;61816;53.582;10.096;2023-05-01T05:11:22;54313.28;;;-144.73;100.00
73551;BME280;61816;53.582;10.096;2023-05-01T05:13:48;54317.38;;;-144.73;100.00
73551;BME280;61816;53.582;10.096;2023-05-01T05:16:13;54337.91;;;-144.73;99.91
73551;BME280;61816;53.582;10.096;2023-05-01T05:18:39;54309.19;;;-144.73;99.75
73551;BME280;61816;53.582;10.096;2023-05-01T05:21:05;54333.81;;;-144.73;98.12
73551;BME280;61816;53.582;10.096;2023-05-01T05:23:31;54329.72;;;-144.73;98.25
73551;BME280;61816;53.582;10.096;2023-05-01T05:25:56;54346.13;;;-144.73;98.17
73551;BME280;61816;53.582;10.096;2023-05-01T05:28:26;54333.81;;;-144.73;97.55
73551;BME280;61816;53.582;10.096;2023-05-01T05:30:53;54305.06;;;-144.73;96.86
73551;BME280;61816;53.582;10.096;2023-05-01T05:33:18;54342.03;;;-144.73;96.75
73551;BME280;61816;53.582;10.096;2023-05-01T05:35:44;54333.81;;;-144.73;96.98
73551;BME280;61816;53.582;10.096;2023-05-01T05:38:09;54321.50;;;-144.73;97.01
73551;BME280;61816;53.582;10.096;2023-05-01T05:40:34;54325.59;;;-144.73;96.53
73551;BME280;61816;53.582;10.096;2023-05-01T05:43:00;54335.88;;;-144.73;96.04
73551;BME280;61816;53.582;10.096;2023-05-01T05:45:25;54350.22;;;-144.73;94.62
73551;BME280;61816;53.582;10.096;2023-05-01T05:47:51;54358.44;;;-144.73;95.03
73551;BME280;61816;53.582;10.096;2023-05-01T05:50:16;54339.97;;;-144.73;93.32
73551;BME280;61816;53.582;10.096;2023-05-01T05:52:42;54374.84;;;-144.73;93.55
73551;BME280;61816;53.582;10.096;2023-05-01T05:55:07;54333.81;;;-144.73;91.95
73551;BME280;61816;53.582;10.096;2023-05-01T05:57:33;54346.13;;;-144.73;91.65
73551;BME280;61816;53.582;10.096;2023-05-01T06:00:01;54358.44;;;-144.73;91.21
73551;BME280;61816;53.582;10.096;2023-05-01T06:02:29;54317.38;;;-144.73;90.96
73551;BME280;61816;53.582;10.096;2023-05-01T06:04:54;54313.28;;;-144.73;89.79
73551;BME280;61816;53.582;10.096;2023-05-01T06:07:21;54317.38;;;-144.73;88.55
73551;BME280;61816;53.582;10.096;2023-05-01T06:09:47;54383.06;;;-144.73;89.40
73551;BME280;61816;53.582;10.096;2023-05-01T06:12:12;54344.06;;;-144.73;88.58
73551;BME280;61816;53.582;10.096;2023-05-01T06:14:37;54317.38;;;-144.73;86.83
73551;BME280;61816;53.582;10.096;2023-05-01T06:17:02;54350.22;;;-144.73;86.06
73551;BME280;61816;53.582;10.096;2023-05-01T06:19:28;54346.13;;;-144.73;85.92
73551;BME280;61816;53.582;10.096;2023-05-01T06:21:53;54333.81;;;-144.73;85.55
73551;BME280;61816;53.582;10.096;2023-05-01T06:24:18;54362.53;;;-144.73;84.30
73551;BME280;61816;53.582;10.096;2023-05-01T06:26:44;54350.22;;;-144.73;84.70
73551;BME280;61816;53.582;10.096;2023-05-01T06:29:09;54366.66;;;-144.73;83.63
73551;BME280;61816;53.582;10.096;2023-05-01T06:31:34;54325.59;;;-144.73;82.56
73551;BME280;61816;53.582;10.096;2023-05-01T06:34:00;54309.19;;;-144.73;81.51
73551;BME280;61816;53.582;10.096;2023-05-01T06:36:25;54329.72;;;-144.73;79.92
73551;BME280;61816;53.582;10.096;2023-05-01T06:38:50;54303.03;;;-144.73;79.34
73551;BME280;61816;53.582;10.096;2023-05-01T06:41:16;54378.97;;;-144.73;78.87
73551;BME280;61816;53.582;10.096;2023-05-01T06:43:41;54325.59;;;-144.73;76.90
73551;BME280;61816;53.582;10.096;2023-05-01T06:46:07;54366.66;;;-144.73;75.85
73551;BME280;61816;53.582;10.096;2023-05-01T06:48:32;54342.03;;;-144.73;74.94
73551;BME280;61816;53.582;10.096;2023-05-01T06:50:58;54333.81;;;-144.73;74.78
73551;BME280;61816;53.582;10.096;2023-05-01T06:53:23;54346.13;;;-144.73;72.77
73551;BME280;61816;53.582;10.096;2023-05-01T06:55:48;54300.97;;;-144.73;70.89
73551;BME280;61816;53.582;10.096;2023-05-01T06:58:17;54333.81;;;-144.73;69.98
73551;BME280;61816;53.582;10.096;2023-05-01T07:00:42;54364.59;;;-144.73;69.93
73551;BME280;61816;53.582;10.096;2023-05-01T07:03:08;54317.38;;;-144.73;68.45
73551;BME280;61816;53.582;10.096;2023-05-01T07:05:36;54317.38;;;-144.73;69.30
73551;BME280;61816;53.582;10.096;2023-05-01T07:08:01;54325.59;;;-144.73;67.41
73551;BME280;61816;53.582;10.096;2023-05-01T07:10:27;54337.91;;;-144.73;67.62
73551;BME280;61816;53.582;10.096;2023-05-01T07:12:53;54317.38;;;-144.73;66.30
73551;BME280;61816;53.582;10.096;2023-05-01T07:15:18;54327.66;;;-144.73;65.95
73551;BME280;61816;53.582;10.096;2023-05-01T07:17:44;54329.72;;;-144.73;65.05
73551;BME280;61816;53.582;10.096;2023-05-01T07:20:10;54329.72;;;-144.73;64.24
73551;BME280;61816;53.582;10.096;2023-05-01T07:22:36;54348.19;;;-144.73;63.93
73551;BME280;61816;53.582;10.096;2023-05-01T07:25:02;54337.91;;;-144.73;63.13
73551;BME280;61816;53.582;10.096;2023-05-01T07:27:27;54350.22;;;-144.73;63.10
73551;BME280;61816;53.582;10.096;2023-05-01T07:29:54;54325.59;;;-144.73;61.92
73551;BME280;61816;53.582;10.096;2023-05-01T07:32:20;54317.38;;;-144.73;62.48
73551;BME280;61816;53.582;10.096;2023-05-01T07:34:45;54303.03;;;-144.73;61.29
73551;BME280;61816;53.582;10.096;2023-05-01T07:37:10;54259.91;;;-144.73;60.82
73551;BME280;61816;53.582;10.096;2023-05-01T07:39:36;54255.81;;;-144.73;60.61
73551;BME280;61816;53.582;10.096;2023-05-01T07:42:01;54305.06;;;-144.73;59.50
73551;BME280;61816;53.582;10.096;2023-05-01T07:44:27;54307.13;;;-144.73;59.94
73551;BME280;61816;53.582;10.096;2023-05-01T07:46:52;54300.97;;;-144.73;59.65
73551;BME280;61816;53.582;10.096;2023-05-01T07:49:17;54284.56;;;-144.73;58.96
73551;BME280;61816;53.582;10.096;2023-05-01T07:51:43;54239.41;;;-144.73;58.71
73551;BME280;61816;53.582;10.096;2023-05-01T07:54:09;54317.38;;;-144.73;57.80
73551;BME280;61816;53.582;10.096;2023-05-01T07:56:35;54280.44;;;-144.73;57.66
73551;BME280;61816;53.582;10.096;2023-05-01T07:59:00;54253.75;;;-144.73;58.12
73551;BME280;61816;53.582;10.096;2023-05-01T08:01:25;54313.28;;;-144.73;58.24
73551;BME280;61816;53.582;10.096;2023-05-01T08:03:51;54251.72;;;-144.73;56.51
73551;BME280;61816;53.582;10.096;2023-05-01T08:06:16;54292.75;;;-144.73;56.38
73551;BME280;61816;53.582;10.096;2023-05-01T08:08:41;54251.72;;;-144.73;56.93
73551;BME280;61816;53.582;10.096;2023-05-01T08:11:07;54342.03;;;-144.73;56.53
73551;BME280;61816;53.582;10.096;2023-05-01T08:13:33;54309.19;;;-144.73;54.92
73551;BME280;61816;53.582;10.096;2023-05-01T08:16:01;54278.41;;;-144.73;55.19
73551;BME280;61816;53.582;10.096;2023-05-01T08:18:28;54305.06;;;-144.73;55.80
73551;BME280;61816;53.582;10.096;2023-05-01T08:20:53;54288.66;;;-144.73;54.74
73551;BME280;61816;53.582;10.096;2023-05-01T08:23:21;54288.66;;;-144.73;55.31
73551;BME280;61816;53.582;10.096;2023-05-01T08:25:50;54317.38;;;-144.73;54.29
73551;BME280;61816;53.582;10.096;2023-05-01T08:28:16;54282.50;;;-144.73;55.09
73551;BME280;61816;53.582;10.096;2023-05-01T08:30:42;54284.56;;;-144.73;54.11
73551;BME280;61816;53.582;10.096;2023-05-01T08:33:08;54268.13;;;-144.73;54.43
73551;BME280;61816;53.582;10.096;2023-05-01T08:35:34;54251.72;;;-144.73;54.07
73551;BME280;61816;53.582;10.096;2023-05-01T08:37:59;54325.59;;;-144.73;54.64
73551;BME280;61816;53.582;10.096;2023-05-01T08:40:25;54276.34;;;-144.73;54.95
73551;BME280;61816;53.582;10.096;2023-05-01T08:42:51;54255.81;;;-144.73;55.74
73551;BME280;61816;53.582;10.096;2023-05-01T08:45:18;54261.97;;;-144.73;53.47
73551;BME280;61816;53.582;10.096;2023-05-01T08:47:46;54284.56;;;-144.73;54.06
73551;BME280;61816;53.582;10.096;2023-05-01T08:50:13;54284.56;;;-144.73;54.40
73551;BME280;61816;53.582;10.096;2023-05-01T08:52:40;54284.56;;;-144.73;53.05
73551;BME280;61816;53.582;10.096;2023-05-01T08:55:13;54276.34;;;-144.73;52.60
73551;BME280;61816;53.582;10.096;2023-05-01T08:57:44;54292.75;;;-144.73;54.74
73551;BME280;61816;53.582;10.096;2023-05-01T09:00:15;54255.81;;;-144.73;54.25
73551;BME280;61816;53.582;10.096;2023-05-01T09:02:42;54296.88;;;-144.73;53.31
73551;BME280;61816;53.582;10.096;2023-05-01T09:05:08;54298.91;;;-144.73;53.07
73551;BME280;61816;53.582;10.096;2023-05-01T09:07:35;54325.59;;;-144.73;53.27
73551;BME280;61816;53.582;10.096;2023-05-01T09:10:01;54280.44;;;-144.73;52.81
73551;BME280;61816;53.582;10.096;2023-05-01T09:12:27;54235.28;;;-144.73;53.77
73551;BME280;61816;53.582;10.096;2023-05-01T09:14:55;54296.88;;;-144.73;52.90
73551;BME280;61816;53.582;10.096;2023-05-01T09:17:22;54276.34;;;-144.73;50.81
73551;BME280;61816;53.582;10.096;2023-05-01T09:19:48;54276.34;;;-144.73;49.47
73551;BME280;61816;53.582;10.096;2023-05-01T09:22:14;54243.50;;;-144.73;50.28
73551;BME280;61816;53.582;10.096;2023-05-01T09:24:40;54294.81;;;-144.73;46.30
73551;BME280;61816;53.582;10.096;2023-05-01T09:27:06;54284.56;;;-144.73;45.38
73551;BME280;61816;53.582;10.096;2023-05-01T09:29:39;54305.06;;;-144.73;44.33
73551;BME280;61816;53.582;10.096;2023-05-01T09:32:22;54286.59;;;-144.73;43.87
73551;BME280;61816;53.582;10.096;2023-05-01T09:34:50;54284.56;;;-144.73;43.48
73551;BME280;61816;53.582;10.096;2023-05-01T09:37:29;54261.97;;;-144.73;43.34
73551;BME280;61816;53.582;10.096;2023-05-01T09:42:26;54342.03;;;-144.73;42.34
73551;BME280;61816;53.582;10.096;2023-05-01T09:44:52;54329.72;;;-144.73;41.94
73551;BME280;61816;53.582;10.096;2023-05-01T09:47:21;54218.88;;;-144.73;42.94
73551;BME280;61816;53.582;10.096;2023-05-01T09:49:47;54264.03;;;-144.73;43.25
73551;BME280;61816;53.582;10.096;2023-05-01T09:52:13;54276.34;;;-144.73;41.87
73551;BME280;61816;53.582;10.096;2023-05-01T09:54:39;54243.50;;;-144.73;42.11
73551;BME280;61816;53.582;10.096;2023-05-01T09:57:05;54247.59;;;-144.73;42.73
73551;BME280;61816;53.582;10.096;2023-05-01T09:59:31;54276.34;;;-144.73;41.91
73551;BME280;61816;53.582;10.096;2023-05-01T10:01:58;54231.19;;;-144.73;41.50
73551;BME280;61816;53.582;10.096;2023-05-01T10:04:33;54255.81;;;-144.73;41.60
73551;BME280;61816;53.582;10.096;2023-05-01T10:07:10;54280.44;;;-144.73;40.66
73551;BME280;61816;53.582;10.096;2023-05-01T10:09:37;54247.59;;;-144.73;40.56
73551;BME280;61816;53.582;10.096;2023-05-01T10:12:03;54298.91;;;-144.73;41.14
73551;BME280;61816;53.582;10.096;2023-05-01T10:14:28;54284.56;;;-144.73;40.75
73551;BME280;61816;53.582;10.096;2023-05-01T10:16:54;54255.81;;;-144.73;40.08
73551;BME280;61816;53.582;10.096;2023-05-01T10:19:23;54292.75;;;-144.73;38.59
73551;BME280;61816;53.582;10.096;2023-05-01T10:21:49;54255.81;;;-144.73;39.25
73551;BME280;61816;53.582;10.096;2023-05-01T10:24:15;54278.41;;;-144.73;39.02
73551;BME280;61816;53.582;10.096;2023-05-01T10:26:41;54243.50;;;-144.73;39.52
73551;BME280;61816;53.582;10.096;2023-05-01T10:29:07;54247.59;;;-144.73;38.57
73551;BME280;61816;53.582;10.096;2023-05-01T10:31:33;54259.91;;;-144.73;38.07
73551;BME280;61816;53.582;10.096;2023-05-01T10:34:00;54268.13;;;-144.73;37.00
73551;BME280;61816;53.582;10.096;2023-05-01T10:36:31;54251.72;;;-144.73;36.28
73551;BME280;61816;53.582;10.096;2023-05-01T10:38:58;54266.06;;;-144.73;35.71
73551;BME280;61816;53.582;10.096;2023-05-01T10:44:28;54266.06;;;-144.73;34.26
73551;BME280;61816;53.582;10.096;2023-05-01T10:46:54;54235.28;;;-144.73;33.46
73551;BME280;61816;53.582;10.096;2023-05-01T10:49:20;54255.81;;;-144.73;35.18
73551;BME280;61816;53.582;10.096;2023-05-01T10:54:27;54194.25;;;-144.73;34.89
73551;BME280;61816;53.582;10.096;2023-05-01T10:57:00;54288.66;;;-144.73;33.59
73551;BME280;61816;53.582;10.096;2023-05-01T10:59:26;54264.03;;;-144.73;33.81
73551;BME280;61816;53.582;10.096;2023-05-01T11:01:53;54210.66;;;-144.73;33.06
73551;BME280;61816;53.582;10.096;2023-05-01T11:12:15;54202.44;;;-144.73;32.95
73551;BME280;61816;53.582;10.096;2023-05-01T11:20:43;54268.13;;;-144.73;31.72
73551;BME280;61816;53.582;10.096;2023-05-01T11:22:58;54202.44;;;-144.73;31.96
73551;BME280;61816;53.582;10.096;2023-05-01T11:25:25;54227.09;;;-144.73;31.38
73551;BME280;61816;53.582;10.096;2023-05-01T11:28:02;54186.03;;;-144.73;32.13
73551;BME280;61816;53.582;10.096;2023-05-01T11:30:40;54231.19;;;-144.73;30.40
73551;BME280;61816;53.582;10.096;2023-05-01T11:33:06;54216.81;;;-144.73;30.84
73551;BME280;61816;53.582;10.096;2023-05-01T11:35:32;54227.09;;;-144.73;30.29
73551;BME280;61816;53.582;10.096;2023-05-01T11:37:57;54204.50;;;-144.73;29.97
73551;BME280;61816;53.582;10.096;2023-05-01T11:40:27;54243.50;;;-144.73;30.38
73551;BME280;61816;53.582;10.096;2023-05-01T11:45:25;54245.56;;;-144.73;29.54
73551;BME280;61816;53.582;10.096;2023-05-01T11:47:52;54202.44;;;-144.73;29.49
73551;BME280;61816;53.582;10.096;2023-05-01T11:50:17;54253.75;;;-144.73;29.25
73551;BME280;61816;53.582;10.096;2023-05-01T11:52:48;54259.91;;;-144.73;29.35
73551;BME280;61816;53.582;10.096;2023-05-01T11:55:15;54235.28;;;-144.73;29.75
73551;BME280;61816;53.582;10.096;2023-05-01T11:57:48;54227.09;;;-144.73;29.09
73551;BME280;61816;53.582;10.096;2023-05-01T12:00:15;54214.78;;;-144.73;29.25
73551;BME280;61816;53.582;10.096;2023-05-01T12:03:03;54231.19;;;-144.73;28.90
73551;BME280;61816;53.582;10.096;2023-05-01T12:05:31;54239.41;;;-144.73;27.94
73551;BME280;61816;53.582;10.096;2023-05-01T12:08:16;54247.59;;;-144.73;28.26
73551;BME280;61816;53.582;10.096;2023-05-01T12:10:48;54255.81;;;-144.73;29.42
73551;BME280;61816;53.582;10.096;2023-05-01T12:13:14;54284.56;;;-144.73;28.51
73551;BME280;61816;53.582;10.096;2023-05-01T12:15:50;54235.28;;;-144.73;28.55
73551;BME280;61816;53.582;10.096;2023-05-01T12:18:16;54222.97;;;-144.73;28.06
73551;BME280;61816;53.582;10.096;2023-05-01T12:20:48;54235.28;;;-144.73;28.92
73551;BME280;61816;53.582;10.096;2023-05-01T12:23:17;54239.41;;;-144.73;28.48
73551;BME280;61816;53.582;10.096;2023-05-01T12:25:44;54181.94;;;-144.73;28.90
73551;BME280;61816;53.582;10.096;2023-05-01T12:28:18;54210.66;;;-144.73;28.05
73551;BME280;61816;53.582;10.096;2023-05-01T12:30:45;54202.44;;;-144.73;28.18
73551;BME280;61816;53.582;10.096;2023-05-01T12:33:16;54212.72;;;-144.73;28.14
73551;BME280;61816;53.582;10.096;2023-05-01T12:35:42;54239.41;;;-144.73;27.67
73551;BME280;61816;53.582;10.096;2023-05-01T12:38:20;54227.09;;;-144.73;28.56
73551;BME280;61816;53.582;10.096;2023-05-01T12:40:55;54222.97;;;-144.73;28.31
73551;BME280;61816;53.582;10.096;2023-05-01T12:43:33;54186.03;;;-144.73;28.14
73551;BME280;61816;53.582;10.096;2023-05-01T12:45:59;54227.09;;;-144.73;28.89
73551;BME280;61816;53.582;10.096;2023-05-01T12:48:24;54214.78;;;-144.73;28.04
73551;BME280;61816;53.582;10.096;2023-05-01T12:50:50;54177.81;;;-144.73;27.83
73551;BME280;61816;53.582;10.096;2023-05-01T12:53:23;54206.56;;;-144.73;27.41
73551;BME280;61816;53.582;10.096;2023-05-01T12:55:54;54194.25;;;-144.73;27.46
73551;BME280;61816;53.582;10.096;2023-05-01T12:58:20;54218.88;;;-144.73;27.79
73551;BME280;61816;53.582;10.096;2023-05-01T13:00:48;54190.13;;;-144.73;27.41